createdAt,value
2019-05-23T00:02:24.306Z,8.07
2019-05-23T00:04:55.700Z,7.89
2019-05-23T00:07:27.029Z,7.79
2019-05-23T00:09:59.533Z,7.64
2019-05-23T00:12:35.604Z,7.76
2019-05-23T00:15:12.732Z,7.75
2019-05-23T00:17:43.489Z,7.79
2019-05-23T00:20:13.296Z,7.76
2019-05-23T00:22:44.632Z,7.78
2019-05-23T00:25:16.222Z,7.82
2019-05-23T00:27:47.435Z,7.84
2019-05-23T00:30:19.086Z,7.78
2019-05-23T00:32:51.086Z,7.59
2019-05-23T00:35:20.953Z,7.63
2019-05-23T00:37:51.301Z,7.58
2019-05-23T00:40:21.594Z,7.54
2019-05-23T00:42:51.836Z,7.81
2019-05-23T00:45:23.249Z,7.82
2019-05-23T00:47:56.443Z,7.96
2019-05-23T00:50:26.487Z,7.98
2019-05-23T00:52:56.747Z,8.23
2019-05-23T00:55:28.525Z,8.15
2019-05-23T00:57:59.546Z,8.18
2019-05-23T01:00:30.189Z,8.22
2019-05-23T01:03:00.047Z,8.25
2019-05-23T01:05:31.253Z,8.23
2019-05-23T01:08:01.760Z,8.22
2019-05-23T01:10:32.245Z,8.29
2019-05-23T01:13:02.983Z,8.34
2019-05-23T01:15:34.292Z,8.34
2019-05-23T01:18:05.166Z,8.36
2019-05-23T01:20:36.539Z,8.40
2019-05-23T01:23:07.139Z,8.41
2019-05-23T01:25:36.995Z,8.55
2019-05-23T01:28:08.358Z,8.52
2019-05-23T01:30:51.966Z,8.62
2019-05-23T01:33:21.689Z,8.63
2019-05-23T01:35:51.816Z,8.63
2019-05-23T01:38:22.870Z,8.65
2019-05-23T01:40:53.082Z,8.61
2019-05-23T01:43:25.583Z,8.61
2019-05-23T01:45:55.815Z,8.60
2019-05-23T01:48:32.096Z,8.54
2019-05-23T01:51:02.418Z,8.56
2019-05-23T01:53:32.624Z,8.49
2019-05-23T01:56:02.549Z,8.50
2019-05-23T01:58:32.711Z,8.47
2019-05-23T02:01:04.644Z,8.47
2019-05-23T02:03:35.945Z,8.43
2019-05-23T02:06:06.548Z,8.42
2019-05-23T02:08:36.617Z,8.38
2019-05-23T02:11:07.264Z,8.34
2019-05-23T02:13:37.770Z,8.27
2019-05-23T02:16:07.450Z,8.29
2019-05-23T02:18:37.155Z,8.25
2019-05-23T02:21:07.752Z,8.31
2019-05-23T02:23:37.814Z,8.33
2019-05-23T02:26:09.303Z,8.31
2019-05-23T02:28:39.713Z,8.29
2019-05-23T02:31:11.989Z,8.23
2019-05-23T02:33:43.626Z,8.19
2019-05-23T02:36:13.734Z,8.20
2019-05-23T02:38:55.034Z,8.16
2019-05-23T02:41:35.492Z,8.16
2019-05-23T02:44:16.529Z,8.14
2019-05-23T02:47:01.961Z,8.10
2019-05-23T02:49:34.090Z,8.02
2019-05-23T02:52:20.429Z,7.91
2019-05-23T02:54:52.573Z,7.90
2019-05-23T02:57:25.433Z,7.85
2019-05-23T02:59:58.241Z,7.85
2019-05-23T03:02:43.809Z,7.78
2019-05-23T03:05:16.741Z,7.80
2019-05-23T03:07:46.560Z,7.76
2019-05-23T03:10:19.027Z,7.74
2019-05-23T03:12:49.591Z,7.74
2019-05-23T03:15:19.554Z,7.85
2019-05-23T03:17:52.785Z,7.78
2019-05-23T03:20:24.082Z,7.83
2019-05-23T03:23:06.194Z,7.84
2019-05-23T03:25:39.711Z,7.89
2019-05-23T03:28:12.667Z,7.90
2019-05-23T03:30:45.107Z,7.92
2019-05-23T03:33:15.807Z,8.07
2019-05-23T03:35:53.448Z,8.11
2019-05-23T03:38:23.892Z,8.18
2019-05-23T03:40:54.707Z,8.20
2019-05-23T03:43:24.456Z,8.25
2019-05-23T03:45:58.350Z,8.26
2019-05-23T03:48:29.612Z,8.47
2019-05-23T03:51:01.087Z,8.43
2019-05-23T03:53:32.105Z,8.54
2019-05-23T03:56:02.079Z,8.67
2019-05-23T03:58:33.415Z,8.73
2019-05-23T04:01:06.758Z,8.90
2019-05-23T04:03:39.994Z,8.86
2019-05-23T04:06:09.529Z,8.88
2019-05-23T04:08:39.299Z,8.92
2019-05-23T04:11:09.147Z,8.92
2019-05-23T04:13:38.898Z,9.05
2019-05-23T04:16:09.185Z,9.19
2019-05-23T04:18:39.051Z,9.49
2019-05-23T04:21:09.395Z,9.80
2019-05-23T04:23:39.930Z,10.19
2019-05-23T04:26:09.844Z,10.26
2019-05-23T04:28:39.572Z,10.21
2019-05-23T04:31:13.002Z,10.19
2019-05-23T04:33:41.494Z,10.48
2019-05-23T04:36:11.821Z,10.73
2019-05-23T04:38:41.631Z,10.86
2019-05-23T04:41:11.952Z,11.34
2019-05-23T04:43:41.690Z,11.55
2019-05-23T04:46:11.687Z,11.61
2019-05-23T04:48:41.515Z,11.42
2019-05-23T04:51:11.895Z,11.20
2019-05-23T04:53:41.870Z,11.12
2019-05-23T04:56:11.645Z,11.00
2019-05-23T04:58:41.435Z,10.98
2019-05-23T05:01:12.736Z,10.93
2019-05-23T05:03:44.886Z,11.01
2019-05-23T05:06:14.921Z,10.98
2019-05-23T05:08:44.645Z,11.05
2019-05-23T05:11:14.882Z,11.20
2019-05-23T05:13:44.748Z,11.17
2019-05-23T05:16:14.464Z,11.21
2019-05-23T05:18:44.530Z,11.37
2019-05-23T05:21:14.520Z,11.57
2019-05-23T05:23:44.223Z,11.58
2019-05-23T05:26:17.005Z,11.57
2019-05-23T05:28:47.165Z,11.74
2019-05-23T05:31:16.871Z,11.74
2019-05-23T05:33:46.802Z,11.85
2019-05-23T05:36:16.534Z,11.91
2019-05-23T05:38:46.361Z,11.94
2019-05-23T05:41:16.050Z,12.16
2019-05-23T05:43:46.325Z,12.16
2019-05-23T05:46:16.095Z,12.28
2019-05-23T05:48:46.221Z,12.42
2019-05-23T05:51:16.097Z,12.36
2019-05-23T05:53:46.769Z,12.48
2019-05-23T05:56:16.623Z,12.50
2019-05-23T05:58:46.457Z,12.73
2019-05-23T06:01:32.785Z,12.94
2019-05-23T06:03:50.009Z,12.85
2019-05-23T06:06:21.521Z,12.70
2019-05-23T06:08:53.636Z,12.77
2019-05-23T06:11:23.387Z,12.92
2019-05-23T06:13:54.425Z,12.86
2019-05-23T06:16:24.256Z,13.33
2019-05-23T06:18:54.591Z,14.21
2019-05-23T06:21:25.995Z,15.37
2019-05-23T06:23:56.064Z,16.23
2019-05-23T06:26:25.819Z,16.36
2019-05-23T06:28:55.574Z,16.56
2019-05-23T06:31:26.070Z,16.71
2019-05-23T06:33:55.740Z,16.38
2019-05-23T06:36:26.080Z,16.18
2019-05-23T06:38:57.804Z,16.38
2019-05-23T06:41:27.814Z,16.49
2019-05-23T06:43:57.731Z,16.98
2019-05-23T06:46:28.302Z,17.50
2019-05-23T06:48:58.075Z,16.69
2019-05-23T06:51:28.288Z,16.93
2019-05-23T06:53:59.067Z,16.68
2019-05-23T06:56:29.202Z,17.12
2019-05-23T06:58:59.020Z,17.61
2019-05-23T07:01:28.926Z,17.12
2019-05-23T07:03:59.146Z,17.16
2019-05-23T07:06:29.683Z,17.98
2019-05-23T07:08:59.418Z,17.35
2019-05-23T07:11:29.198Z,17.40
2019-05-23T07:13:59.109Z,17.70
2019-05-23T07:16:28.951Z,18.08
2019-05-23T07:18:58.937Z,19.17
2019-05-23T07:21:30.491Z,18.16
2019-05-23T07:24:02.170Z,16.97
2019-05-23T07:26:32.590Z,17.40
2019-05-23T07:29:04.051Z,17.13
2019-05-23T07:31:35.601Z,16.42
2019-05-23T07:34:05.838Z,16.45
2019-05-23T07:36:36.844Z,16.47
2019-05-23T07:39:11.588Z,16.28
2019-05-23T07:41:41.641Z,16.02
2019-05-23T07:44:11.886Z,16.58
2019-05-23T07:46:42.508Z,16.50
2019-05-23T07:49:12.821Z,16.40
2019-05-23T07:51:43.247Z,16.38
2019-05-23T07:54:15.026Z,16.29
2019-05-23T07:56:45.278Z,16.35
2019-05-23T07:59:15.035Z,16.47
2019-05-23T08:01:47.842Z,16.68
2019-05-23T08:04:21.911Z,16.64
2019-05-23T08:06:49.359Z,16.70
2019-05-23T08:09:19.945Z,16.84
2019-05-23T08:11:49.995Z,16.36
2019-05-23T08:14:19.991Z,16.26
2019-05-23T08:16:51.025Z,16.39
2019-05-23T08:19:20.956Z,16.58
2019-05-23T08:21:50.722Z,17.00
2019-05-23T08:24:20.585Z,17.08
2019-05-23T08:26:50.970Z,16.95
2019-05-23T08:29:26.336Z,16.96
2019-05-23T08:31:52.587Z,17.05
2019-05-23T08:34:39.953Z,17.36
2019-05-23T08:36:54.443Z,17.60
2019-05-23T08:39:25.316Z,17.83
2019-05-23T08:41:55.239Z,17.52
2019-05-23T08:44:25.532Z,17.68
2019-05-23T08:46:55.639Z,17.65
2019-05-23T08:49:25.884Z,18.12
2019-05-23T08:51:56.072Z,18.38
2019-05-23T08:54:25.862Z,17.59
2019-05-23T08:56:55.666Z,18.16
2019-05-23T08:59:25.658Z,18.38
2019-05-23T09:01:55.668Z,18.22
2019-05-23T09:04:25.415Z,18.25
2019-05-23T09:06:55.668Z,18.12
2019-05-23T09:09:30.431Z,18.47
2019-05-23T09:11:57.908Z,18.38
2019-05-23T09:14:28.218Z,18.50
2019-05-23T09:16:58.123Z,18.90
2019-05-23T09:19:28.039Z,19.35
2019-05-23T09:21:58.391Z,18.90
2019-05-23T09:24:28.137Z,18.33
2019-05-23T09:26:57.915Z,18.20
2019-05-23T09:29:27.643Z,18.34
2019-05-23T09:31:57.821Z,18.69
2019-05-23T09:34:27.896Z,18.49
2019-05-23T09:37:00.385Z,18.56
2019-05-23T09:39:31.031Z,19.23
2019-05-23T09:42:00.703Z,19.01
2019-05-23T09:44:30.450Z,18.61
2019-05-23T09:47:00.160Z,18.40
2019-05-23T09:49:30.341Z,18.76
2019-05-23T09:52:01.421Z,19.00
2019-05-23T09:54:31.534Z,19.43
2019-05-23T09:57:01.350Z,19.19
2019-05-23T09:59:31.648Z,18.50
2019-05-23T10:02:03.128Z,18.79
2019-05-23T10:04:33.038Z,18.98
2019-05-23T10:07:02.773Z,19.17
2019-05-23T10:09:32.537Z,18.94
2019-05-23T10:12:02.459Z,18.98
2019-05-23T10:14:33.772Z,19.27
2019-05-23T10:17:03.610Z,19.05
2019-05-23T10:19:33.409Z,19.04
2019-05-23T10:22:05.484Z,19.01
2019-05-23T10:24:35.217Z,18.88
2019-05-23T10:27:06.776Z,19.02
2019-05-23T10:29:36.453Z,19.05
2019-05-23T10:32:07.861Z,19.13
2019-05-23T10:34:37.554Z,19.48
2019-05-23T10:37:08.961Z,19.29
2019-05-23T10:39:38.802Z,19.32
2019-05-23T10:42:08.632Z,19.15
2019-05-23T10:44:38.324Z,18.92
2019-05-23T10:47:09.482Z,19.47
2019-05-23T10:49:39.361Z,20.18
2019-05-23T10:52:09.117Z,20.25
2019-05-23T10:54:38.942Z,19.75
2019-05-23T10:57:08.694Z,19.05
2019-05-23T10:59:38.528Z,19.52
2019-05-23T11:02:08.644Z,20.09
2019-05-23T11:04:38.413Z,19.93
2019-05-23T11:07:08.420Z,19.78
2019-05-23T11:09:38.961Z,19.82
2019-05-23T11:12:09.158Z,20.56
2019-05-23T11:14:38.979Z,19.90
2019-05-23T11:17:09.792Z,19.71
2019-05-23T11:19:39.960Z,20.05
2019-05-23T11:22:11.430Z,20.17
2019-05-23T11:24:41.221Z,20.30
2019-05-23T11:27:10.943Z,20.45
2019-05-23T11:29:40.715Z,20.09
2019-05-23T11:32:10.836Z,20.30
2019-05-23T11:34:40.598Z,20.62
2019-05-23T11:37:10.411Z,20.62
2019-05-23T11:39:49.796Z,20.74
2019-05-23T11:42:11.877Z,20.56
2019-05-23T11:44:41.786Z,20.22
2019-05-23T11:47:18.063Z,20.31
2019-05-23T11:49:47.839Z,21.02
2019-05-23T11:52:17.596Z,21.09
2019-05-23T11:54:47.539Z,21.19
2019-05-23T11:57:17.825Z,20.81
2019-05-23T11:59:47.553Z,20.63
2019-05-23T12:02:24.993Z,20.63
2019-05-23T12:04:56.413Z,20.61
2019-05-23T12:07:30.659Z,20.61
2019-05-23T12:10:00.498Z,20.13
2019-05-23T12:12:30.348Z,20.29
2019-05-23T12:15:00.264Z,20.38
2019-05-23T12:17:32.088Z,20.90
2019-05-23T12:20:02.395Z,20.90
2019-05-23T12:22:32.645Z,20.99
2019-05-23T12:25:19.850Z,20.36
2019-05-23T12:27:34.054Z,19.54
2019-05-23T12:30:07.317Z,19.47
2019-05-23T12:32:37.090Z,19.83
2019-05-23T12:35:11.166Z,20.16
2019-05-23T12:37:38.930Z,20.25
2019-05-23T12:40:10.932Z,20.47
2019-05-23T12:42:40.914Z,20.83
2019-05-23T12:45:12.018Z,20.83
2019-05-23T12:47:56.392Z,20.57
2019-05-23T12:50:44.489Z,20.81
2019-05-23T12:53:15.899Z,20.67
2019-05-23T12:55:45.708Z,20.40
2019-05-23T12:58:15.771Z,20.61
2019-05-23T13:00:47.362Z,20.38
2019-05-23T13:03:17.396Z,20.40
2019-05-23T13:05:47.445Z,20.19
2019-05-23T13:08:17.693Z,19.90
2019-05-23T13:10:47.517Z,20.19
2019-05-23T13:13:17.292Z,20.69
2019-05-23T13:15:47.471Z,20.50
2019-05-23T13:18:17.182Z,20.41
2019-05-23T13:20:47.738Z,20.14
2019-05-23T13:23:21.100Z,19.98
2019-05-23T13:25:49.527Z,20.34
2019-05-23T13:28:19.495Z,20.05
2019-05-23T13:30:49.450Z,20.49
2019-05-23T13:33:20.208Z,21.10
2019-05-23T13:35:50.475Z,21.34
2019-05-23T13:38:20.281Z,21.34
2019-05-23T13:40:49.960Z,21.14
2019-05-23T13:43:19.807Z,21.25
2019-05-23T13:45:49.648Z,20.67
2019-05-23T13:48:19.620Z,20.46
2019-05-23T13:50:49.574Z,20.76
2019-05-23T13:53:19.350Z,20.84
2019-05-23T13:55:49.247Z,20.77
2019-05-23T13:58:19.793Z,20.31
2019-05-23T14:00:50.033Z,20.35
2019-05-23T14:03:20.103Z,20.11
2019-05-23T14:05:50.029Z,20.04
2019-05-23T14:08:19.853Z,20.15
2019-05-23T14:10:49.891Z,20.04
2019-05-23T14:13:19.746Z,20.01
2019-05-23T14:15:51.577Z,20.46
2019-05-23T14:18:23.292Z,20.61
2019-05-23T14:20:53.144Z,20.71
2019-05-23T14:23:27.010Z,20.81
2019-05-23T14:25:57.984Z,20.93
2019-05-23T14:28:28.324Z,20.97
2019-05-23T14:31:06.550Z,20.48
2019-05-23T14:33:44.122Z,20.37
2019-05-23T14:36:15.550Z,20.45
2019-05-23T14:38:46.182Z,20.45
2019-05-23T14:41:16.263Z,20.34
2019-05-23T14:43:47.598Z,20.23
2019-05-23T14:46:19.028Z,20.11
2019-05-23T14:48:58.906Z,19.86
2019-05-23T14:51:48.522Z,19.69
2019-05-23T14:54:26.195Z,19.48
2019-05-23T14:56:55.981Z,19.51
2019-05-23T14:59:25.741Z,19.42
2019-05-23T15:01:56.101Z,19.36
2019-05-23T15:04:25.774Z,19.38
2019-05-23T15:06:55.625Z,19.46
2019-05-23T15:09:25.397Z,19.46
2019-05-23T15:11:55.156Z,19.55
2019-05-23T15:14:24.894Z,19.61
2019-05-23T15:16:54.633Z,19.59
2019-05-23T15:19:39.845Z,19.64
2019-05-23T15:21:55.857Z,19.59
2019-05-23T15:24:25.804Z,19.71
2019-05-23T15:26:55.579Z,19.65
2019-05-23T15:29:29.012Z,19.58
2019-05-23T15:32:02.322Z,19.59
2019-05-23T15:34:28.451Z,19.72
2019-05-23T15:36:58.128Z,19.77
2019-05-23T15:39:28.148Z,19.80
2019-05-23T15:41:57.893Z,19.86
2019-05-23T15:44:29.675Z,20.00
2019-05-23T15:46:59.160Z,20.36
2019-05-23T15:49:29.390Z,20.53
2019-05-23T15:52:03.532Z,20.79
2019-05-23T15:54:37.859Z,20.79
2019-05-23T15:57:09.409Z,20.61
2019-05-23T15:59:40.744Z,20.55
2019-05-23T16:02:15.171Z,20.60
2019-05-23T16:04:44.977Z,20.70
2019-05-23T16:07:14.862Z,20.57
2019-05-23T16:09:44.695Z,20.69
2019-05-23T16:12:14.546Z,20.58
2019-05-23T16:14:45.155Z,20.58
2019-05-23T16:17:15.063Z,20.36
2019-05-23T16:19:44.943Z,20.47
2019-05-23T16:22:14.790Z,20.49
2019-05-23T16:24:44.764Z,20.49
2019-05-23T16:27:14.419Z,20.66
2019-05-23T16:29:44.554Z,20.66
2019-05-23T16:32:14.265Z,20.40
2019-05-23T16:34:43.943Z,20.43
2019-05-23T16:37:13.715Z,20.43
2019-05-23T16:39:48.262Z,20.30
2019-05-23T16:42:15.079Z,19.94
2019-05-23T16:44:44.902Z,20.13
2019-05-23T16:47:14.764Z,20.13
2019-05-23T16:49:44.524Z,20.13
2019-05-23T16:52:14.360Z,20.16
2019-05-23T16:54:45.924Z,20.39
2019-05-23T16:57:17.472Z,20.33
2019-05-23T16:59:48.950Z,20.27
2019-05-23T17:02:36.780Z,20.22
2019-05-23T17:05:16.450Z,20.28
2019-05-23T17:07:58.561Z,20.30
2019-05-23T17:10:39.488Z,20.37
2019-05-23T17:13:12.638Z,20.37
2019-05-23T17:15:53.649Z,20.12
2019-05-23T17:18:25.126Z,20.05
2019-05-23T17:20:59.243Z,19.83
2019-05-23T17:23:47.017Z,19.83
2019-05-23T17:26:33.509Z,19.81
2019-05-23T17:29:11.470Z,19.95
2019-05-23T17:31:42.817Z,19.93
2019-05-23T17:34:12.607Z,19.92
2019-05-23T17:36:42.381Z,19.79
2019-05-23T17:39:13.000Z,19.57
2019-05-23T17:41:43.090Z,19.52
2019-05-23T17:44:12.911Z,19.40
2019-05-23T17:46:45.242Z,19.50
2019-05-23T17:49:15.392Z,19.47
2019-05-23T17:51:45.234Z,19.34
2019-05-23T17:54:15.329Z,19.10
2019-05-23T17:56:45.099Z,19.04
2019-05-23T17:59:14.906Z,19.10
2019-05-23T18:01:45.294Z,19.05
2019-05-23T18:04:15.233Z,19.04
2019-05-23T18:06:45.156Z,19.13
2019-05-23T18:09:15.556Z,19.17
2019-05-23T18:11:45.235Z,19.25
2019-05-23T18:14:15.754Z,19.24
2019-05-23T18:16:46.108Z,19.16
2019-05-23T18:19:16.510Z,19.11
2019-05-23T18:21:46.606Z,19.02
2019-05-23T18:24:16.678Z,18.91
2019-05-23T18:26:46.701Z,18.78
2019-05-23T18:29:16.840Z,18.73
2019-05-23T18:31:46.766Z,18.60
2019-05-23T18:34:16.594Z,18.49
2019-05-23T18:36:46.417Z,18.48
2019-05-23T18:39:17.101Z,18.41
2019-05-23T18:41:46.820Z,18.30
2019-05-23T18:44:17.929Z,18.25
2019-05-23T18:46:49.464Z,18.31
2019-05-23T18:49:19.942Z,18.33
2019-05-23T18:51:50.246Z,18.20
2019-05-23T18:54:19.921Z,18.18
2019-05-23T18:56:49.850Z,17.84
2019-05-23T18:59:20.467Z,17.44
2019-05-23T19:01:50.516Z,17.36
2019-05-23T19:04:20.357Z,17.34
2019-05-23T19:06:51.539Z,17.17
2019-05-23T19:09:21.919Z,16.93
2019-05-23T19:11:51.749Z,16.92
2019-05-23T19:14:21.858Z,16.84
2019-05-23T19:16:52.325Z,16.43
2019-05-23T19:19:22.433Z,16.22
2019-05-23T19:21:52.620Z,16.34
2019-05-23T19:24:22.661Z,16.25
2019-05-23T19:26:53.139Z,16.06
2019-05-23T19:29:23.325Z,15.96
2019-05-23T19:31:53.174Z,15.86
2019-05-23T19:34:23.118Z,15.64
2019-05-23T19:36:53.135Z,15.66
2019-05-23T19:39:25.068Z,15.57
2019-05-23T19:41:54.833Z,15.49
2019-05-23T19:44:24.715Z,15.10
2019-05-23T19:46:59.950Z,15.01
2019-05-23T19:49:32.450Z,14.93
2019-05-23T19:52:02.389Z,14.95
2019-05-23T19:54:32.576Z,14.88
2019-05-23T19:57:02.534Z,14.81
2019-05-23T19:59:32.401Z,14.77
2019-05-23T20:02:06.953Z,14.67
2019-05-23T20:04:38.748Z,14.62
2019-05-23T20:07:09.270Z,14.53
2019-05-23T20:09:39.072Z,14.35
2019-05-23T20:12:19.753Z,13.97
2019-05-23T20:14:50.413Z,13.84
2019-05-23T20:17:20.778Z,13.78
2019-05-23T20:19:50.852Z,13.65
2019-05-23T20:22:20.773Z,13.77
2019-05-23T20:24:50.592Z,13.71
2019-05-23T20:27:20.663Z,13.69
2019-05-23T20:29:50.486Z,13.62
2019-05-23T20:32:20.458Z,13.59
2019-05-23T20:34:50.185Z,13.60
2019-05-23T20:37:20.492Z,13.53
2019-05-23T20:39:50.433Z,13.45
2019-05-23T20:42:20.163Z,13.34
2019-05-23T20:44:50.140Z,13.21
2019-05-23T20:47:20.110Z,13.06
2019-05-23T20:49:50.440Z,12.98
2019-05-23T20:52:20.339Z,12.96
2019-05-23T20:54:50.287Z,12.94
2019-05-23T20:57:20.243Z,12.97
2019-05-23T20:59:49.975Z,12.87
2019-05-23T21:02:19.838Z,12.92
2019-05-23T21:04:49.609Z,12.95
2019-05-23T21:07:19.475Z,12.97
2019-05-23T21:09:49.264Z,13.02
2019-05-23T21:12:29.597Z,12.96
2019-05-23T21:14:52.889Z,12.98
2019-05-23T21:17:23.531Z,12.96
2019-05-23T21:19:53.298Z,12.75
2019-05-23T21:22:23.295Z,12.56
2019-05-23T21:24:53.164Z,12.58
2019-05-23T21:27:23.446Z,12.65
2019-05-23T21:29:53.221Z,12.63
2019-05-23T21:32:22.935Z,12.49
2019-05-23T21:34:52.762Z,12.39
2019-05-23T21:37:22.618Z,12.39
2019-05-23T21:39:52.499Z,12.49
2019-05-23T21:42:22.264Z,12.44
2019-05-23T21:44:52.088Z,12.46
2019-05-23T21:47:22.703Z,12.31
2019-05-23T21:49:52.400Z,12.16
2019-05-23T21:52:22.368Z,12.30
2019-05-23T21:54:52.208Z,12.29
2019-05-23T21:57:21.966Z,12.32
2019-05-23T21:59:51.677Z,12.34
2019-05-23T22:02:25.714Z,12.01
2019-05-23T22:05:03.438Z,12.18
2019-05-23T22:07:33.211Z,12.04
2019-05-23T22:10:03.280Z,12.09
2019-05-23T22:12:32.965Z,12.04
2019-05-23T22:15:03.129Z,11.98
2019-05-23T22:17:33.256Z,11.87
2019-05-23T22:20:03.045Z,11.88
2019-05-23T22:22:32.731Z,11.93
2019-05-23T22:25:02.455Z,11.93
2019-05-23T22:27:32.163Z,11.93
2019-05-23T22:30:02.330Z,11.89
2019-05-23T22:32:32.578Z,11.83
2019-05-23T22:35:04.531Z,11.69
2019-05-23T22:37:34.293Z,11.74
2019-05-23T22:40:04.974Z,11.76
2019-05-23T22:42:35.855Z,11.60
2019-05-23T22:45:08.541Z,11.39
2019-05-23T22:47:38.272Z,11.40
2019-05-23T22:50:08.249Z,11.32
2019-05-23T22:52:37.925Z,11.45
2019-05-23T22:55:07.771Z,11.46
2019-05-23T22:57:37.620Z,11.46
2019-05-23T23:00:07.470Z,11.43
2019-05-23T23:02:37.231Z,11.41
2019-05-23T23:05:07.119Z,11.40
2019-05-23T23:07:36.889Z,11.39
2019-05-23T23:10:06.755Z,11.44
2019-05-23T23:12:36.705Z,11.50
2019-05-23T23:15:08.191Z,11.59
2019-05-23T23:17:37.876Z,11.56
2019-05-23T23:20:08.185Z,11.52
2019-05-23T23:22:37.899Z,11.43
2019-05-23T23:25:07.947Z,11.39
2019-05-23T23:27:37.656Z,11.28
2019-05-23T23:30:09.552Z,11.26
2019-05-23T23:32:39.322Z,11.22
2019-05-23T23:35:09.111Z,11.14
2019-05-23T23:37:38.786Z,11.11
2019-05-23T23:40:09.314Z,11.08
2019-05-23T23:42:39.259Z,11.05
2019-05-23T23:45:27.852Z,10.97
2019-05-23T23:51:01.393Z,11.00
2019-05-23T23:53:49.245Z,11.08
2019-05-23T23:56:36.926Z,10.97
2019-05-23T23:59:14.031Z,10.88
